createdAt,value
2016-08-18T00:01:02.107Z,0
2016-08-18T00:01:47.201Z,0
2016-08-18T00:02:47.919Z,0
2016-08-18T00:03:48.306Z,0
2016-08-18T00:05:02.202Z,0
2016-08-18T00:05:47.301Z,0
2016-08-18T00:06:47.325Z,0
2016-08-18T00:07:47.354Z,0
2016-08-18T00:08:47.373Z,0
2016-08-18T00:10:47.424Z,0
2016-08-18T00:11:47.439Z,0
2016-08-18T00:12:47.475Z,0
2016-08-18T00:13:47.492Z,0
2016-08-18T00:15:02.445Z,0
2016-08-18T00:15:47.542Z,0
2016-08-18T00:16:47.569Z,0
2016-08-18T00:18:02.527Z,0
2016-08-18T00:18:47.623Z,0
2016-08-18T00:19:47.642Z,0
2016-08-18T00:20:47.664Z,0
2016-08-18T00:21:47.745Z,0
2016-08-18T00:22:47.776Z,0
2016-08-18T00:23:47.728Z,0
2016-08-18T00:24:47.764Z,0
2016-08-18T00:26:47.810Z,0
2016-08-18T00:28:02.766Z,0
2016-08-18T00:28:47.871Z,0
2016-08-18T00:30:02.808Z,0
2016-08-18T00:30:47.918Z,0
2016-08-18T00:31:47.945Z,0
2016-08-18T00:34:02.908Z,0
2016-08-18T00:34:48.010Z,0
2016-08-18T00:35:48.033Z,0
2016-08-18T00:36:48.055Z,0
2016-08-18T00:37:48.085Z,0
2016-08-18T00:38:48.101Z,0
2016-08-18T00:39:48.133Z,0
2016-08-18T00:41:03.086Z,0
2016-08-18T00:41:48.184Z,0
2016-08-18T00:42:48.192Z,0
2016-08-18T00:44:48.251Z,0
2016-08-18T00:45:48.287Z,0
2016-08-18T00:46:48.300Z,0
2016-08-18T00:47:48.328Z,0
2016-08-18T00:49:03.270Z,0
2016-08-18T00:50:03.294Z,0
2016-08-18T00:51:18.244Z,0
2016-08-18T00:51:48.416Z,0
2016-08-18T00:52:48.447Z,0
2016-08-18T00:54:03.395Z,0
2016-08-18T00:55:03.420Z,0
2016-08-18T00:55:48.519Z,0
2016-08-18T00:56:48.544Z,0
2016-08-18T00:59:04.233Z,0
2016-08-18T00:59:48.614Z,0
2016-08-18T01:00:48.641Z,0
2016-08-18T01:01:48.658Z,0
2016-08-18T01:02:48.686Z,0
2016-08-18T01:03:48.716Z,0
2016-08-18T01:05:03.653Z,0
2016-08-18T01:06:03.682Z,0
2016-08-18T01:06:48.790Z,0
2016-08-18T01:07:48.812Z,0
2016-08-18T01:08:48.831Z,0
2016-08-18T01:11:03.804Z,0
2016-08-18T01:11:48.908Z,0
2016-08-18T01:12:50.990Z,0
2016-08-18T01:13:48.960Z,0
2016-08-18T01:14:48.987Z,0
2016-08-18T01:15:49.005Z,0
2016-08-18T01:16:49.022Z,0
2016-08-18T01:18:03.974Z,0
2016-08-18T01:19:03.996Z,0
2016-08-18T01:19:49.099Z,0
2016-08-18T01:21:04.038Z,0
2016-08-18T01:21:49.159Z,0
2016-08-18T01:22:49.176Z,0
2016-08-18T01:23:51.303Z,0
2016-08-18T01:24:49.272Z,0
2016-08-18T01:25:49.246Z,0
2016-08-18T01:26:49.272Z,0
2016-08-18T01:27:49.291Z,0
2016-08-18T01:28:49.316Z,0
2016-08-18T01:29:50.031Z,0
2016-08-18T01:30:49.365Z,0
2016-08-18T01:32:04.315Z,0
2016-08-18T01:33:19.262Z,0
2016-08-18T01:34:19.287Z,0
2016-08-18T01:34:49.463Z,0
2016-08-18T01:36:19.334Z,0
2016-08-18T01:36:49.518Z,0
2016-08-18T01:37:49.534Z,0
2016-08-18T01:38:49.551Z,0
2016-08-18T01:39:49.591Z,0
2016-08-18T01:40:49.602Z,0
2016-08-18T01:42:04.555Z,0
2016-08-18T01:42:49.654Z,0
2016-08-18T01:43:49.678Z,0
2016-08-18T01:45:04.622Z,0
2016-08-18T01:45:49.734Z,0
2016-08-18T01:46:49.759Z,0
2016-08-18T01:48:05.381Z,0
2016-08-18T01:48:49.799Z,0
2016-08-18T01:49:49.817Z,0
2016-08-18T01:50:49.849Z,0
2016-08-18T01:51:49.867Z,0
2016-08-18T01:53:04.810Z,0
2016-08-18T01:53:49.918Z,0
2016-08-18T01:55:04.858Z,0
2016-08-18T01:56:04.891Z,0
2016-08-18T01:56:49.987Z,0
2016-08-18T01:57:50.019Z,0
2016-08-18T02:00:04.983Z,0
2016-08-18T02:00:50.093Z,0
2016-08-18T02:01:50.111Z,0
2016-08-18T02:02:50.135Z,0
2016-08-18T02:03:50.156Z,0
2016-08-18T02:04:50.186Z,0
2016-08-18T02:06:05.130Z,0
2016-08-18T02:06:50.243Z,0
2016-08-18T02:07:50.250Z,0
2016-08-18T02:10:05.229Z,0
2016-08-18T02:10:50.334Z,0
2016-08-18T02:12:05.275Z,0
2016-08-18T02:12:50.376Z,0
2016-08-18T02:13:50.399Z,0
2016-08-18T02:14:50.424Z,0
2016-08-18T02:15:50.444Z,0
2016-08-18T02:16:50.469Z,0
2016-08-18T02:17:50.492Z,0
2016-08-18T02:18:50.505Z,0
2016-08-18T02:19:50.545Z,0
2016-08-18T02:20:50.559Z,0
2016-08-18T02:22:05.514Z,0
2016-08-18T02:22:50.602Z,0
2016-08-18T02:23:50.686Z,0
2016-08-18T02:25:05.632Z,0
2016-08-18T02:25:52.785Z,0
2016-08-18T02:26:50.707Z,0
2016-08-18T02:27:50.738Z,0
2016-08-18T02:28:51.454Z,0
2016-08-18T02:30:05.702Z,0
2016-08-18T02:30:50.812Z,0
2016-08-18T02:31:51.528Z,0
2016-08-18T02:32:50.849Z,0
2016-08-18T02:33:50.878Z,0
2016-08-18T02:34:50.898Z,0
2016-08-18T02:36:05.849Z,0
2016-08-18T02:37:05.874Z,0
2016-08-18T02:37:50.962Z,0
2016-08-18T02:38:50.994Z,0
2016-08-18T02:39:51.011Z,0
2016-08-18T02:41:51.059Z,0
2016-08-18T02:42:51.098Z,0
2016-08-18T02:43:51.110Z,0
2016-08-18T02:44:51.136Z,0
2016-08-18T02:45:51.155Z,0
2016-08-18T02:46:51.199Z,0
2016-08-18T02:47:51.202Z,0
2016-08-18T02:48:51.225Z,0
2016-08-18T02:49:51.255Z,0
2016-08-18T02:50:51.276Z,0
2016-08-18T02:52:06.223Z,0
2016-08-18T02:53:06.249Z,0
2016-08-18T02:53:51.345Z,0
2016-08-18T02:54:51.384Z,0
2016-08-18T02:56:21.251Z,0
2016-08-18T02:56:51.425Z,0
2016-08-18T02:57:51.441Z,0
2016-08-18T02:58:51.470Z,0
2016-08-18T02:59:51.492Z,0
2016-08-18T03:00:51.516Z,0
2016-08-18T03:03:06.494Z,0
2016-08-18T03:04:51.631Z,0
2016-08-18T03:05:51.626Z,0
2016-08-18T03:07:06.587Z,0
2016-08-18T03:07:51.674Z,0
2016-08-18T03:08:51.703Z,0
2016-08-18T03:09:51.734Z,0
2016-08-18T03:11:06.676Z,0
2016-08-18T03:11:51.769Z,0
2016-08-18T03:12:51.805Z,0
2016-08-18T03:14:06.742Z,0
2016-08-18T03:14:51.846Z,0
2016-08-18T03:15:51.871Z,0
2016-08-18T03:16:51.895Z,0
2016-08-18T03:17:51.922Z,0
2016-08-18T03:18:51.938Z,0
2016-08-18T03:19:51.964Z,0
2016-08-18T03:20:51.991Z,0
2016-08-18T03:21:52.012Z,0
2016-08-18T03:22:52.059Z,0
2016-08-18T03:23:52.049Z,0
2016-08-18T03:25:53.250Z,0
2016-08-18T03:26:52.139Z,0
2016-08-18T03:28:07.130Z,0
2016-08-18T03:28:52.172Z,0
2016-08-18T03:29:52.198Z,0
2016-08-18T03:31:07.155Z,0
2016-08-18T03:31:52.244Z,0
2016-08-18T03:32:52.280Z,0
2016-08-18T03:33:52.994Z,0
2016-08-18T03:34:52.328Z,0
2016-08-18T03:35:52.347Z,0
2016-08-18T03:36:52.370Z,0
2016-08-18T03:37:52.385Z,0
2016-08-18T03:39:22.266Z,0
2016-08-18T03:40:52.462Z,0
2016-08-18T03:42:22.335Z,0
2016-08-18T03:42:52.521Z,0
2016-08-18T03:44:07.472Z,0
2016-08-18T03:44:52.564Z,0
2016-08-18T03:46:07.503Z,0
2016-08-18T03:46:52.611Z,0
2016-08-18T03:47:52.629Z,0
2016-08-18T03:48:53.351Z,0
2016-08-18T03:49:52.677Z,5
2016-08-18T03:50:52.702Z,5
2016-08-18T03:51:52.732Z,5
2016-08-18T03:52:52.742Z,5
2016-08-18T03:53:52.781Z,5
2016-08-18T03:54:52.794Z,5
2016-08-18T03:55:53.518Z,5
2016-08-18T03:56:52.847Z,5
2016-08-18T03:57:52.867Z,5
2016-08-18T03:58:52.904Z,5
2016-08-18T04:00:22.778Z,5
2016-08-18T04:01:07.864Z,5
2016-08-18T04:01:52.973Z,5
2016-08-18T04:02:52.989Z,5
2016-08-18T04:03:53.011Z,10
2016-08-18T04:04:53.036Z,10
2016-08-18T04:05:53.056Z,10
2016-08-18T04:07:08.000Z,10
2016-08-18T04:07:53.102Z,10
2016-08-18T04:08:53.822Z,10
2016-08-18T04:09:53.147Z,15
2016-08-18T04:10:53.190Z,15
2016-08-18T04:11:53.200Z,15
2016-08-18T04:12:53.217Z,15
2016-08-18T04:13:53.248Z,15
2016-08-18T04:14:53.272Z,20
2016-08-18T04:16:08.218Z,20
2016-08-18T04:17:08.236Z,20
2016-08-18T04:17:53.352Z,20
2016-08-18T04:19:53.388Z,20
2016-08-18T04:20:53.407Z,20
2016-08-18T04:21:53.440Z,20
2016-08-18T04:22:53.458Z,20
2016-08-18T04:23:54.192Z,20
2016-08-18T04:24:53.510Z,20
2016-08-18T04:28:23.427Z,20
2016-08-18T04:28:53.605Z,20
2016-08-18T04:29:53.636Z,20
2016-08-18T04:31:08.572Z,20
2016-08-18T04:31:53.723Z,20
2016-08-18T04:32:53.706Z,20
2016-08-18T04:33:53.739Z,25
2016-08-18T04:34:53.742Z,25
2016-08-18T04:35:53.770Z,25
2016-08-18T04:36:53.795Z,25
2016-08-18T04:38:08.737Z,25
2016-08-18T04:38:53.838Z,25
2016-08-18T04:39:53.860Z,25
2016-08-18T04:40:53.891Z,25
2016-08-18T04:41:53.912Z,25
2016-08-18T04:44:08.884Z,30
2016-08-18T04:44:53.984Z,30
2016-08-18T04:45:54.010Z,30
2016-08-18T04:46:54.027Z,30
2016-08-18T04:47:54.063Z,30
2016-08-18T04:49:08.990Z,30
2016-08-18T04:49:54.116Z,30
2016-08-18T04:51:54.150Z,30
2016-08-18T04:52:54.172Z,30
2016-08-18T04:53:54.192Z,30
2016-08-18T04:54:54.922Z,35
2016-08-18T04:55:54.240Z,35
2016-08-18T04:57:54.293Z,35
2016-08-18T04:58:54.315Z,40
2016-08-18T05:00:09.264Z,40
2016-08-18T05:01:09.286Z,40
2016-08-18T05:01:54.389Z,45
2016-08-18T05:03:09.335Z,45
2016-08-18T05:04:54.457Z,45
2016-08-18T05:06:09.422Z,45
2016-08-18T05:06:54.503Z,45
2016-08-18T05:07:54.540Z,45
2016-08-18T05:09:09.481Z,45
2016-08-18T05:09:54.581Z,45
2016-08-18T05:10:54.606Z,45
2016-08-18T05:11:54.635Z,45
2016-08-18T05:12:54.653Z,50
2016-08-18T05:13:54.684Z,50
2016-08-18T05:14:54.699Z,50
2016-08-18T05:16:09.648Z,55
2016-08-18T05:16:54.749Z,60
2016-08-18T05:17:54.778Z,60
2016-08-18T05:19:09.734Z,60
2016-08-18T05:19:54.837Z,60
2016-08-18T05:20:54.849Z,65
2016-08-18T05:21:54.867Z,70
2016-08-18T05:22:54.895Z,215
2016-08-18T05:23:54.914Z,75
2016-08-18T05:24:54.947Z,70
2016-08-18T05:25:54.972Z,70
2016-08-18T05:27:09.924Z,65
2016-08-18T05:27:55.021Z,65
2016-08-18T05:28:55.042Z,65
2016-08-18T05:29:55.066Z,65
2016-08-18T05:31:11.177Z,65
2016-08-18T05:31:55.172Z,65
2016-08-18T05:32:55.146Z,65
2016-08-18T05:33:55.174Z,65
2016-08-18T05:35:10.113Z,70
2016-08-18T05:36:10.138Z,70
2016-08-18T05:36:55.248Z,70
2016-08-18T05:38:55.287Z,70
2016-08-18T05:39:55.316Z,75
2016-08-18T05:40:55.337Z,75
2016-08-18T05:41:55.379Z,75
2016-08-18T05:42:55.394Z,75
2016-08-18T05:43:55.407Z,75
2016-08-18T05:44:55.440Z,75
2016-08-18T05:45:55.467Z,75
2016-08-18T05:46:55.485Z,75
2016-08-18T05:47:55.515Z,75
2016-08-18T05:48:55.545Z,80
2016-08-18T05:49:55.609Z,80
2016-08-18T05:51:10.513Z,80
2016-08-18T05:51:55.622Z,80
2016-08-18T05:52:56.042Z,80
2016-08-18T05:53:56.381Z,80
2016-08-18T05:54:56.419Z,85
2016-08-18T05:55:55.722Z,85
2016-08-18T05:56:55.738Z,85
2016-08-18T05:57:55.769Z,85
2016-08-18T05:58:55.783Z,85
2016-08-18T05:59:55.820Z,85
2016-08-18T06:00:55.849Z,85
2016-08-18T06:02:55.891Z,85
2016-08-18T06:03:55.921Z,85
2016-08-18T06:04:55.958Z,85
2016-08-18T06:06:10.885Z,85
2016-08-18T06:06:55.985Z,85
2016-08-18T06:07:56.014Z,85
2016-08-18T06:08:56.046Z,85
2016-08-18T06:09:56.060Z,85
2016-08-18T06:10:56.798Z,85
2016-08-18T06:13:11.086Z,90
2016-08-18T06:13:56.161Z,90
2016-08-18T06:14:56.189Z,90
2016-08-18T06:15:56.222Z,90
2016-08-18T06:16:56.248Z,90
2016-08-18T06:18:12.399Z,95
2016-08-18T06:18:56.992Z,95
2016-08-18T06:19:56.319Z,95
2016-08-18T06:21:11.272Z,95
2016-08-18T06:21:56.373Z,95
2016-08-18T06:22:56.390Z,95
2016-08-18T06:23:56.420Z,95
2016-08-18T06:24:56.438Z,95
2016-08-18T06:25:56.482Z,95
2016-08-18T06:26:56.490Z,95
2016-08-18T06:28:11.441Z,95
2016-08-18T06:28:56.543Z,95
2016-08-18T06:29:56.584Z,95
2016-08-18T06:30:56.598Z,95
2016-08-18T06:31:56.682Z,95
2016-08-18T06:32:57.460Z,95
2016-08-18T06:33:56.724Z,95
2016-08-18T06:34:56.703Z,95
2016-08-18T06:36:11.672Z,95
2016-08-18T06:36:56.751Z,95
2016-08-18T06:38:11.702Z,95
2016-08-18T06:39:11.764Z,100
2016-08-18T06:39:56.837Z,100
2016-08-18T06:40:56.854Z,100
2016-08-18T06:42:11.802Z,105
2016-08-18T06:42:56.899Z,105
2016-08-18T06:43:56.925Z,105
2016-08-18T06:45:11.973Z,105
2016-08-18T06:45:56.979Z,105
2016-08-18T06:46:57.000Z,105
2016-08-18T06:47:57.045Z,105
2016-08-18T06:49:57.088Z,100
2016-08-18T06:50:57.107Z,100
2016-08-18T06:51:57.131Z,100
2016-08-18T06:53:12.078Z,100
2016-08-18T06:54:12.111Z,100
2016-08-18T06:55:12.131Z,100
2016-08-18T06:55:57.242Z,95
2016-08-18T06:56:57.271Z,95
2016-08-18T06:58:12.210Z,95
2016-08-18T06:58:58.007Z,95
2016-08-18T06:59:57.331Z,95
2016-08-18T07:00:57.374Z,95
2016-08-18T07:01:57.391Z,95
2016-08-18T07:03:12.340Z,95
2016-08-18T07:03:58.138Z,95
2016-08-18T07:04:57.471Z,95
2016-08-18T07:05:57.488Z,95
2016-08-18T07:07:12.439Z,95
2016-08-18T07:07:57.545Z,95
2016-08-18T07:08:57.568Z,100
2016-08-18T07:10:12.513Z,100
2016-08-18T07:10:58.320Z,100
2016-08-18T07:11:57.642Z,100
2016-08-18T07:12:57.674Z,100
2016-08-18T07:13:57.696Z,105
2016-08-18T07:14:57.726Z,105
2016-08-18T07:15:57.754Z,105
2016-08-18T07:17:57.795Z,110
2016-08-18T07:19:59.253Z,110
2016-08-18T07:20:57.878Z,115
2016-08-18T07:21:58.598Z,115
2016-08-18T07:22:57.936Z,115
2016-08-18T07:23:57.952Z,115
2016-08-18T07:24:57.987Z,115
2016-08-18T07:26:12.934Z,120
2016-08-18T07:26:58.041Z,120
2016-08-18T07:27:58.771Z,120
2016-08-18T07:28:58.091Z,120
2016-08-18T07:29:58.115Z,120
2016-08-18T07:30:58.137Z,120
2016-08-18T07:31:58.172Z,125
2016-08-18T07:33:13.114Z,125
2016-08-18T07:33:58.224Z,125
2016-08-18T07:35:13.212Z,130
2016-08-18T07:35:58.270Z,140
2016-08-18T07:36:58.303Z,140
2016-08-18T07:37:58.357Z,140
2016-08-18T07:39:13.271Z,140
2016-08-18T07:39:58.371Z,140
2016-08-18T07:41:28.248Z,140
2016-08-18T07:41:58.428Z,140
2016-08-18T07:42:59.149Z,140
2016-08-18T07:43:58.491Z,140
2016-08-18T07:44:58.509Z,140
2016-08-18T07:45:58.523Z,140
2016-08-18T07:46:58.561Z,140
2016-08-18T07:47:58.583Z,140
2016-08-18T07:49:13.537Z,145
2016-08-18T07:49:58.636Z,145
2016-08-18T07:50:58.665Z,145
2016-08-18T07:51:58.682Z,150
2016-08-18T07:53:13.696Z,155
2016-08-18T07:54:13.689Z,160
2016-08-18T07:54:58.769Z,165
2016-08-18T07:55:58.793Z,165
2016-08-18T07:56:58.836Z,170
2016-08-18T07:58:14.471Z,175
2016-08-18T07:58:58.879Z,175
2016-08-18T07:59:58.905Z,175
2016-08-18T08:00:58.923Z,175
2016-08-18T08:01:58.959Z,180
2016-08-18T08:02:59.677Z,185
2016-08-18T08:03:59.007Z,190
2016-08-18T08:05:14.654Z,190
2016-08-18T08:05:59.067Z,190
2016-08-18T08:06:59.095Z,190
2016-08-18T08:09:59.159Z,190
2016-08-18T08:11:14.114Z,190
2016-08-18T08:13:14.163Z,195
2016-08-18T08:13:59.267Z,195
2016-08-18T08:15:14.217Z,190
2016-08-18T08:16:59.343Z,180
2016-08-18T08:17:59.382Z,170
2016-08-18T08:18:59.413Z,160
2016-08-18T08:19:59.443Z,155
2016-08-18T08:23:14.440Z,150
2016-08-18T08:23:59.544Z,145
2016-08-18T08:25:14.486Z,145
2016-08-18T08:26:15.326Z,150
2016-08-18T08:27:14.561Z,155
2016-08-18T08:27:59.692Z,155
2016-08-18T08:29:59.706Z,155
2016-08-18T08:30:59.754Z,150
2016-08-18T08:31:59.811Z,150
2016-08-18T08:32:59.774Z,150
2016-08-18T08:33:59.809Z,150
2016-08-18T08:35:01.141Z,150
2016-08-18T08:36:01.274Z,155
2016-08-18T08:37:00.274Z,155
2016-08-18T08:38:01.562Z,155
2016-08-18T08:38:59.978Z,155
2016-08-18T08:40:15.178Z,160
2016-08-18T08:41:00.159Z,160
2016-08-18T08:43:00.221Z,165
2016-08-18T08:44:00.083Z,165
2016-08-18T08:45:15.982Z,165
2016-08-18T08:46:00.134Z,165
2016-08-18T08:47:00.158Z,165
2016-08-18T08:49:02.014Z,165
2016-08-18T08:50:02.138Z,165
2016-08-18T08:51:00.484Z,165
2016-08-18T08:52:01.339Z,165
2016-08-18T08:53:01.033Z,165
2016-08-18T08:55:00.429Z,165
2016-08-18T08:56:00.403Z,165
2016-08-18T08:57:15.820Z,165
2016-08-18T08:58:00.460Z,170
2016-08-18T08:59:01.205Z,170
2016-08-18T09:00:01.250Z,170
2016-08-18T09:01:15.653Z,175
2016-08-18T09:02:00.694Z,180
2016-08-18T09:03:01.820Z,180
2016-08-18T09:04:15.547Z,185
2016-08-18T09:05:00.648Z,185
2016-08-18T09:06:01.361Z,190
2016-08-18T09:07:15.626Z,190
2016-08-18T09:08:00.728Z,195
2016-08-18T09:09:00.754Z,200
2016-08-18T09:10:01.488Z,200
2016-08-18T09:11:00.811Z,200
2016-08-18T09:12:01.537Z,205
2016-08-18T09:13:15.789Z,205
2016-08-18T09:14:00.931Z,210
2016-08-18T09:15:00.916Z,210
2016-08-18T09:16:16.578Z,215
2016-08-18T09:17:00.978Z,215
2016-08-18T09:18:01.014Z,215
2016-08-18T09:19:01.026Z,215
2016-08-18T09:20:01.076Z,220
2016-08-18T09:21:01.179Z,220
2016-08-18T09:22:01.125Z,215
2016-08-18T09:23:01.145Z,215
2016-08-18T09:24:01.175Z,210
2016-08-18T09:25:01.202Z,210
2016-08-18T09:26:01.260Z,205
2016-08-18T09:27:01.270Z,205
2016-08-18T09:28:01.276Z,205
2016-08-18T09:29:01.312Z,210
2016-08-18T09:30:01.388Z,215
2016-08-18T09:31:16.292Z,215
2016-08-18T09:32:16.322Z,215
2016-08-18T09:33:16.360Z,215
2016-08-18T09:34:01.699Z,215
2016-08-18T09:35:01.594Z,225
2016-08-18T09:36:01.560Z,220
2016-08-18T09:37:01.553Z,220
2016-08-18T09:38:01.572Z,225
2016-08-18T09:39:01.601Z,225
2016-08-18T09:40:03.160Z,225
2016-08-18T09:41:01.645Z,225
2016-08-18T09:42:01.690Z,225
2016-08-18T09:43:01.708Z,225
2016-08-18T09:44:01.768Z,225
2016-08-18T09:45:01.831Z,225
2016-08-18T09:46:01.785Z,230
2016-08-18T09:47:01.827Z,230
2016-08-18T09:48:16.762Z,235
2016-08-18T09:49:01.885Z,235
2016-08-18T09:50:02.122Z,240
2016-08-18T09:51:01.917Z,240
2016-08-18T09:52:01.955Z,250
2016-08-18T09:53:01.982Z,250
2016-08-18T09:54:02.011Z,260
2016-08-18T09:55:02.323Z,265
2016-08-18T09:56:02.227Z,265
2016-08-18T09:57:02.094Z,275
2016-08-18T10:00:02.961Z,290
2016-08-18T10:01:02.907Z,290
2016-08-18T10:02:02.273Z,310
2016-08-18T10:03:32.108Z,295
2016-08-18T10:04:17.219Z,295
2016-08-18T10:05:09.083Z,310
2016-08-18T10:06:02.354Z,295
2016-08-18T10:07:03.764Z,305
2016-08-18T10:08:03.103Z,300
2016-08-18T10:09:02.432Z,305
2016-08-18T10:10:03.406Z,305
2016-08-18T10:11:02.484Z,310
2016-08-18T10:12:02.545Z,295
2016-08-18T10:13:02.546Z,285
2016-08-18T10:14:02.572Z,285
2016-08-18T10:15:02.700Z,290
2016-08-18T10:16:17.788Z,285
2016-08-18T10:17:02.664Z,285
2016-08-18T10:18:02.692Z,285
2016-08-18T10:19:02.721Z,280
2016-08-18T10:20:17.676Z,265
2016-08-18T10:21:03.476Z,255
2016-08-18T10:22:02.805Z,250
2016-08-18T10:23:02.830Z,245
2016-08-18T10:24:02.855Z,245
2016-08-18T10:25:02.895Z,250
2016-08-18T10:26:03.786Z,245
2016-08-18T10:27:02.956Z,240
2016-08-18T10:28:17.900Z,240
2016-08-18T10:29:03.027Z,240
2016-08-18T10:30:17.966Z,235
2016-08-18T10:31:03.064Z,235
2016-08-18T10:32:03.091Z,235
2016-08-18T10:33:03.129Z,235
2016-08-18T10:34:03.156Z,235
2016-08-18T10:35:03.196Z,235
2016-08-18T10:37:03.247Z,230
2016-08-18T10:38:03.269Z,230
2016-08-18T10:39:03.308Z,235
2016-08-18T10:40:03.488Z,225
2016-08-18T10:41:03.364Z,225
2016-08-18T10:42:03.384Z,225
2016-08-18T10:43:03.418Z,220
2016-08-18T10:44:03.442Z,220
2016-08-18T10:45:03.487Z,215
2016-08-18T10:46:03.571Z,215
2016-08-18T10:47:33.386Z,205
2016-08-18T10:48:19.184Z,205
2016-08-18T10:49:03.594Z,200
2016-08-18T10:51:18.569Z,200
2016-08-18T10:52:03.693Z,200
2016-08-18T10:53:03.714Z,205
2016-08-18T10:54:03.731Z,205
2016-08-18T10:56:03.796Z,200
2016-08-18T10:57:03.824Z,205
2016-08-18T10:58:03.849Z,210
2016-08-18T10:59:03.873Z,215
2016-08-18T11:00:11.483Z,215
2016-08-18T11:01:04.683Z,220
2016-08-18T11:02:05.118Z,210
2016-08-18T11:03:18.922Z,210
2016-08-18T11:04:04.018Z,205
2016-08-18T11:05:04.750Z,200
2016-08-18T11:06:19.004Z,200
2016-08-18T11:07:04.112Z,200
2016-08-18T11:08:04.131Z,195
2016-08-18T11:09:04.161Z,195
2016-08-18T11:10:19.125Z,190
2016-08-18T11:11:04.228Z,190
2016-08-18T11:12:04.254Z,190
2016-08-18T11:13:04.274Z,190
2016-08-18T11:14:04.307Z,190
2016-08-18T11:15:04.338Z,200
2016-08-18T11:16:05.123Z,205
2016-08-18T11:17:04.398Z,200
2016-08-18T11:18:04.423Z,200
2016-08-18T11:19:04.457Z,205
2016-08-18T11:20:04.485Z,205
2016-08-18T11:21:04.525Z,210
2016-08-18T11:22:04.535Z,210
2016-08-18T11:23:34.410Z,220
2016-08-18T11:24:19.525Z,220
2016-08-18T11:25:04.662Z,220
2016-08-18T11:26:04.649Z,220
2016-08-18T11:28:04.705Z,220
2016-08-18T11:29:04.730Z,220
2016-08-18T11:30:19.789Z,220
2016-08-18T11:31:04.794Z,220
2016-08-18T11:32:04.815Z,220
2016-08-18T11:33:19.781Z,220
2016-08-18T11:34:05.569Z,215
2016-08-18T11:35:04.898Z,215
2016-08-18T11:36:19.855Z,205
2016-08-18T11:37:04.977Z,210
2016-08-18T11:38:04.996Z,205
2016-08-18T11:39:19.939Z,205
2016-08-18T11:40:05.039Z,210
2016-08-18T11:41:19.989Z,215
2016-08-18T11:42:05.099Z,215
2016-08-18T11:43:05.123Z,215
2016-08-18T11:44:05.183Z,220
2016-08-18T11:45:05.441Z,220
2016-08-18T11:46:05.268Z,215
2016-08-18T11:47:20.174Z,210
2016-08-18T11:48:05.335Z,205
2016-08-18T11:49:05.528Z,200
2016-08-18T11:50:06.029Z,195
2016-08-18T11:51:05.367Z,185
2016-08-18T11:52:06.096Z,175
2016-08-18T11:53:05.420Z,175
2016-08-18T11:54:05.459Z,170
2016-08-18T11:55:20.765Z,175
2016-08-18T11:56:20.421Z,175
2016-08-18T12:12:23.283Z,200
2016-08-18T12:13:08.396Z,200
2016-08-18T12:14:09.105Z,200
2016-08-18T12:15:09.058Z,200
2016-08-18T12:16:09.065Z,200
2016-08-18T12:17:38.997Z,200
2016-08-18T12:18:09.130Z,195
2016-08-18T12:19:09.161Z,190
2016-08-18T12:20:09.184Z,185
2016-08-18T12:21:09.229Z,180
2016-08-18T12:22:09.247Z,180
2016-08-18T12:23:10.330Z,175
2016-08-18T12:24:09.305Z,170
2016-08-18T12:25:09.329Z,170
2016-08-18T12:26:09.347Z,170
2016-08-18T12:27:09.384Z,170
2016-08-18T12:28:09.412Z,175
2016-08-18T12:29:24.363Z,170
2016-08-18T12:30:09.469Z,170
2016-08-18T12:31:39.354Z,170
2016-08-18T12:32:24.442Z,165
2016-08-18T12:33:24.483Z,165
2016-08-18T12:34:24.500Z,165
2016-08-18T12:35:09.607Z,165
2016-08-18T12:36:10.332Z,165
2016-08-18T12:37:09.669Z,170
2016-08-18T12:38:10.398Z,170
2016-08-18T12:39:10.421Z,170
2016-08-18T12:40:09.745Z,170
2016-08-18T12:41:09.775Z,165
2016-08-18T12:42:09.799Z,165
2016-08-18T12:43:24.756Z,165
2016-08-18T12:44:09.871Z,165
2016-08-18T12:45:24.824Z,170
2016-08-18T12:46:24.841Z,170
2016-08-18T12:47:24.879Z,170
2016-08-18T12:48:24.905Z,170
2016-08-18T12:49:24.934Z,170
2016-08-18T12:50:10.031Z,170
2016-08-18T12:51:10.754Z,170
2016-08-18T12:52:10.080Z,170
2016-08-18T12:53:10.128Z,170
2016-08-18T12:54:10.144Z,170
2016-08-18T12:55:10.168Z,175
2016-08-18T12:56:10.197Z,175
2016-08-18T12:57:10.330Z,175
2016-08-18T12:58:25.179Z,185
2016-08-18T12:59:10.291Z,180
2016-08-18T13:00:10.312Z,180
2016-08-18T13:01:25.264Z,180
2016-08-18T13:02:10.376Z,180
2016-08-18T13:03:11.104Z,180
2016-08-18T13:04:10.431Z,185
2016-08-18T13:05:10.454Z,180
2016-08-18T13:06:11.185Z,180
2016-08-18T13:07:10.519Z,180
2016-08-18T13:08:10.544Z,175
2016-08-18T13:09:10.618Z,175
2016-08-18T13:10:10.619Z,170
2016-08-18T13:11:25.554Z,175
2016-08-18T13:12:10.659Z,175
2016-08-18T13:13:10.693Z,175
2016-08-18T13:14:25.642Z,170
2016-08-18T13:15:10.747Z,170
2016-08-18T13:16:11.477Z,170
2016-08-18T13:17:25.723Z,165
2016-08-18T13:18:10.832Z,160
2016-08-18T13:19:10.865Z,155
2016-08-18T13:20:25.867Z,150
2016-08-18T13:21:10.917Z,145
2016-08-18T13:22:10.951Z,140
2016-08-18T13:23:10.978Z,135
2016-08-18T13:24:11.004Z,135
2016-08-18T13:25:11.042Z,135
2016-08-18T13:26:40.921Z,140
2016-08-18T13:27:11.099Z,135
2016-08-18T13:28:11.824Z,140
2016-08-18T13:29:11.141Z,135
2016-08-18T13:30:11.173Z,145
2016-08-18T13:31:11.204Z,150
2016-08-18T13:32:26.157Z,150
2016-08-18T13:33:11.254Z,145
2016-08-18T13:34:11.283Z,160
2016-08-18T13:35:11.315Z,190
2016-08-18T13:36:41.194Z,145
2016-08-18T13:37:11.377Z,155
2016-08-18T13:38:11.403Z,150
2016-08-18T13:39:11.457Z,155
2016-08-18T13:40:11.467Z,145
2016-08-18T13:41:12.182Z,195
2016-08-18T13:42:11.517Z,155
2016-08-18T13:43:11.539Z,175
2016-08-18T13:44:11.572Z,180
2016-08-18T13:45:11.596Z,165
2016-08-18T13:46:11.639Z,160
2016-08-18T13:47:11.658Z,175
2016-08-18T13:48:11.685Z,160
2016-08-18T13:49:26.643Z,160
2016-08-18T13:50:11.748Z,160
2016-08-18T13:51:11.769Z,165
2016-08-18T13:52:41.646Z,165
2016-08-18T13:53:11.831Z,165
2016-08-18T13:54:11.866Z,160
2016-08-18T13:55:11.886Z,160
2016-08-18T13:56:11.904Z,155
2016-08-18T13:57:11.988Z,160
2016-08-18T13:58:26.891Z,205
2016-08-18T13:59:11.988Z,185
2016-08-18T14:00:12.023Z,170
2016-08-18T14:01:12.055Z,165
2016-08-18T14:02:12.087Z,160
2016-08-18T14:03:12.118Z,160
2016-08-18T14:04:12.141Z,160
2016-08-18T14:05:12.166Z,155
2016-08-18T14:06:12.197Z,155
2016-08-18T14:07:12.232Z,155
2016-08-18T14:08:27.182Z,155
2016-08-18T14:09:12.290Z,150
2016-08-18T14:10:27.242Z,150
2016-08-18T14:11:12.336Z,150
2016-08-18T14:12:12.363Z,150
2016-08-18T14:13:12.398Z,145
2016-08-18T14:14:27.353Z,145
2016-08-18T14:15:12.453Z,145
2016-08-18T14:16:12.488Z,145
2016-08-18T14:17:27.444Z,145
2016-08-18T14:18:12.559Z,150
2016-08-18T14:19:12.564Z,150
2016-08-18T14:20:12.622Z,145
2016-08-18T14:21:12.623Z,145
2016-08-18T14:22:12.651Z,145
2016-08-18T14:23:42.537Z,140
2016-08-18T14:24:27.636Z,140
2016-08-18T14:25:27.663Z,135
2016-08-18T14:26:12.915Z,135
2016-08-18T14:27:12.807Z,135
2016-08-18T14:29:27.784Z,130
2016-08-18T14:31:12.905Z,130
2016-08-18T14:32:12.989Z,130
2016-08-18T14:33:12.977Z,130
2016-08-18T14:34:13.000Z,130
2016-08-18T14:35:13.722Z,130
2016-08-18T14:36:13.762Z,130
2016-08-18T14:38:13.110Z,125
2016-08-18T14:40:28.093Z,125
2016-08-18T14:42:13.227Z,125
2016-08-18T14:43:13.263Z,125
2016-08-18T14:44:28.229Z,125
2016-08-18T14:45:13.318Z,125
2016-08-18T14:46:13.341Z,125
2016-08-18T14:47:13.374Z,125
2016-08-18T14:48:13.401Z,120
2016-08-18T14:49:13.425Z,120
2016-08-18T14:50:14.148Z,120
2016-08-18T14:51:13.490Z,115
2016-08-18T14:52:13.512Z,115
2016-08-18T14:54:28.500Z,110
2016-08-18T14:55:28.526Z,110
2016-08-18T14:56:43.479Z,110
2016-08-18T14:57:13.676Z,105
2016-08-18T14:58:13.688Z,105
2016-08-18T14:59:13.717Z,105
2016-08-18T15:00:13.752Z,105
2016-08-18T15:01:13.774Z,100
2016-08-18T15:02:13.796Z,100
2016-08-18T15:03:13.832Z,100
2016-08-18T15:04:13.850Z,100
2016-08-18T15:05:28.819Z,100
2016-08-18T15:06:28.844Z,100
2016-08-18T15:08:13.976Z,100
2016-08-18T15:09:14.015Z,100
2016-08-18T15:11:28.985Z,100
2016-08-18T15:12:14.095Z,100
2016-08-18T15:13:14.133Z,95